sensor_id;sensor_type;location;lat;lon;timestamp;P1;durP1;ratioP1;P2;durP2;ratioP2
58354;SDS011;44160;49.080;19.302;2023-03-01T00:00:47;42.33;;;19.75;;
58354;SDS011;44160;49.080;19.302;2023-03-01T00:03:13;40.88;;;20.98;;
58354;SDS011;44160;49.080;19.302;2023-03-01T00:05:46;42.33;;;20.63;;
58354;SDS011;44160;49.080;19.302;2023-03-01T00:08:12;116.30;;;40.00;;
58354;SDS011;44160;49.080;19.302;2023-03-01T00:10:38;256.35;;;75.22;;
58354;SDS011;44160;49.080;19.302;2023-03-01T00:13:04;161.02;;;55.33;;
58354;SDS011;44160;49.080;19.302;2023-03-01T00:15:31;173.23;;;56.63;;
58354;SDS011;44160;49.080;19.302;2023-03-01T00:17:57;79.28;;;33.63;;
58354;SDS011;44160;49.080;19.302;2023-03-01T00:20:23;68.72;;;29.45;;
58354;SDS011;44160;49.080;19.302;2023-03-01T00:22:55;66.28;;;29.35;;
58354;SDS011;44160;49.080;19.302;2023-03-01T00:25:21;56.42;;;25.60;;
58354;SDS011;44160;49.080;19.302;2023-03-01T00:27:50;53.72;;;25.40;;
58354;SDS011;44160;49.080;19.302;2023-03-01T00:30:17;50.20;;;24.23;;
58354;SDS011;44160;49.080;19.302;2023-03-01T00:32:43;44.35;;;23.35;;
58354;SDS011;44160;49.080;19.302;2023-03-01T00:35:09;49.42;;;22.50;;
58354;SDS011;44160;49.080;19.302;2023-03-01T00:37:35;57.92;;;24.00;;
58354;SDS011;44160;49.080;19.302;2023-03-01T00:40:01;61.17;;;24.77;;
58354;SDS011;44160;49.080;19.302;2023-03-01T00:42:31;50.85;;;23.17;;
58354;SDS011;44160;49.080;19.302;2023-03-01T00:44:57;56.70;;;25.20;;
58354;SDS011;44160;49.080;19.302;2023-03-01T00:47:23;54.40;;;23.60;;
58354;SDS011;44160;49.080;19.302;2023-03-01T00:49:49;52.55;;;24.63;;
58354;SDS011;44160;49.080;19.302;2023-03-01T00:52:15;47.75;;;21.10;;
58354;SDS011;44160;49.080;19.302;2023-03-01T00:54:41;45.75;;;20.98;;
58354;SDS011;44160;49.080;19.302;2023-03-01T00:57:07;50.05;;;22.33;;
58354;SDS011;44160;49.080;19.302;2023-03-01T00:59:33;49.45;;;21.67;;
58354;SDS011;44160;49.080;19.302;2023-03-01T01:01:59;49.15;;;23.88;;
58354;SDS011;44160;49.080;19.302;2023-03-01T01:04:26;46.58;;;21.42;;
58354;SDS011;44160;49.080;19.302;2023-03-01T01:06:52;39.67;;;19.50;;
58354;SDS011;44160;49.080;19.302;2023-03-01T01:09:18;48.33;;;21.60;;
58354;SDS011;44160;49.080;19.302;2023-03-01T01:11:48;48.15;;;21.92;;
58354;SDS011;44160;49.080;19.302;2023-03-01T01:14:14;36.42;;;18.00;;
58354;SDS011;44160;49.080;19.302;2023-03-01T01:16:41;44.25;;;19.00;;
58354;SDS011;44160;49.080;19.302;2023-03-01T01:19:07;46.38;;;20.42;;
58354;SDS011;44160;49.080;19.302;2023-03-01T01:21:33;49.75;;;20.15;;
58354;SDS011;44160;49.080;19.302;2023-03-01T01:23:59;44.85;;;20.63;;
58354;SDS011;44160;49.080;19.302;2023-03-01T01:26:27;44.17;;;20.42;;
58354;SDS011;44160;49.080;19.302;2023-03-01T01:28:53;47.75;;;19.90;;
58354;SDS011;44160;49.080;19.302;2023-03-01T01:31:19;50.03;;;20.23;;
58354;SDS011;44160;49.080;19.302;2023-03-01T01:33:45;46.20;;;20.67;;
58354;SDS011;44160;49.080;19.302;2023-03-01T01:36:11;45.50;;;20.63;;
58354;SDS011;44160;49.080;19.302;2023-03-01T01:38:38;47.95;;;19.45;;
58354;SDS011;44160;49.080;19.302;2023-03-01T01:41:04;50.63;;;21.55;;
58354;SDS011;44160;49.080;19.302;2023-03-01T01:43:33;45.97;;;20.38;;
58354;SDS011;44160;49.080;19.302;2023-03-01T01:46:01;42.50;;;19.88;;
58354;SDS011;44160;49.080;19.302;2023-03-01T01:48:28;41.47;;;20.25;;
58354;SDS011;44160;49.080;19.302;2023-03-01T01:51:05;43.95;;;20.75;;
58354;SDS011;44160;49.080;19.302;2023-03-01T01:53:32;46.60;;;21.40;;
58354;SDS011;44160;49.080;19.302;2023-03-01T01:55:58;35.95;;;18.15;;
58354;SDS011;44160;49.080;19.302;2023-03-01T01:58:27;37.38;;;18.70;;
58354;SDS011;44160;49.080;19.302;2023-03-01T02:00:54;44.47;;;17.98;;
58354;SDS011;44160;49.080;19.302;2023-03-01T02:03:26;38.25;;;17.67;;
58354;SDS011;44160;49.080;19.302;2023-03-01T02:05:58;31.33;;;16.25;;
58354;SDS011;44160;49.080;19.302;2023-03-01T02:08:27;34.33;;;15.10;;
58354;SDS011;44160;49.080;19.302;2023-03-01T02:10:55;35.72;;;14.88;;
58354;SDS011;44160;49.080;19.302;2023-03-01T02:13:22;33.92;;;15.77;;
58354;SDS011;44160;49.080;19.302;2023-03-01T02:15:48;33.85;;;16.63;;
58354;SDS011;44160;49.080;19.302;2023-03-01T02:18:16;36.95;;;16.25;;
58354;SDS011;44160;49.080;19.302;2023-03-01T02:23:12;33.58;;;16.50;;
58354;SDS011;44160;49.080;19.302;2023-03-01T02:28:33;34.50;;;15.95;;
58354;SDS011;44160;49.080;19.302;2023-03-01T02:31:00;32.38;;;14.40;;
58354;SDS011;44160;49.080;19.302;2023-03-01T02:33:45;31.40;;;13.52;;
58354;SDS011;44160;49.080;19.302;2023-03-01T02:36:20;29.88;;;14.45;;
58354;SDS011;44160;49.080;19.302;2023-03-01T02:38:48;28.77;;;13.90;;
58354;SDS011;44160;49.080;19.302;2023-03-01T02:41:16;34.33;;;15.60;;
58354;SDS011;44160;49.080;19.302;2023-03-01T02:43:43;38.83;;;18.38;;
58354;SDS011;44160;49.080;19.302;2023-03-01T02:46:17;44.05;;;20.58;;
58354;SDS011;44160;49.080;19.302;2023-03-01T02:48:57;48.08;;;20.92;;
58354;SDS011;44160;49.080;19.302;2023-03-01T02:56:42;50.08;;;22.77;;
58354;SDS011;44160;49.080;19.302;2023-03-01T02:59:09;51.35;;;22.23;;
58354;SDS011;44160;49.080;19.302;2023-03-01T03:01:35;54.20;;;22.42;;
58354;SDS011;44160;49.080;19.302;2023-03-01T03:04:09;56.65;;;23.55;;
58354;SDS011;44160;49.080;19.302;2023-03-01T03:06:36;50.88;;;23.23;;
58354;SDS011;44160;49.080;19.302;2023-03-01T03:09:03;55.53;;;23.48;;
58354;SDS011;44160;49.080;19.302;2023-03-01T03:11:29;46.00;;;23.15;;
58354;SDS011;44160;49.080;19.302;2023-03-01T03:13:55;53.65;;;22.73;;
58354;SDS011;44160;49.080;19.302;2023-03-01T03:16:23;51.25;;;22.15;;
58354;SDS011;44160;49.080;19.302;2023-03-01T03:18:49;54.40;;;22.95;;
58354;SDS011;44160;49.080;19.302;2023-03-01T03:21:16;45.05;;;21.45;;
58354;SDS011;44160;49.080;19.302;2023-03-01T03:23:42;51.92;;;21.90;;
58354;SDS011;44160;49.080;19.302;2023-03-01T03:26:09;52.50;;;21.30;;
58354;SDS011;44160;49.080;19.302;2023-03-01T03:28:38;45.08;;;20.25;;
58354;SDS011;44160;49.080;19.302;2023-03-01T03:31:05;41.95;;;19.05;;
58354;SDS011;44160;49.080;19.302;2023-03-01T03:33:32;38.10;;;18.08;;
58354;SDS011;44160;49.080;19.302;2023-03-01T03:35:58;34.03;;;16.63;;
58354;SDS011;44160;49.080;19.302;2023-03-01T03:38:24;33.58;;;15.82;;
58354;SDS011;44160;49.080;19.302;2023-03-01T03:40:51;29.55;;;14.93;;
58354;SDS011;44160;49.080;19.302;2023-03-01T03:43:19;29.75;;;13.75;;
58354;SDS011;44160;49.080;19.302;2023-03-01T03:45:45;26.65;;;12.85;;
58354;SDS011;44160;49.080;19.302;2023-03-01T03:48:11;25.48;;;12.82;;
58354;SDS011;44160;49.080;19.302;2023-03-01T03:50:38;27.92;;;14.05;;
58354;SDS011;44160;49.080;19.302;2023-03-01T03:53:06;45.08;;;17.30;;
58354;SDS011;44160;49.080;19.302;2023-03-01T03:55:32;28.00;;;14.00;;
58354;SDS011;44160;49.080;19.302;2023-03-01T03:57:59;30.00;;;14.88;;
58354;SDS011;44160;49.080;19.302;2023-03-01T04:00:31;32.55;;;15.10;;
58354;SDS011;44160;49.080;19.302;2023-03-01T04:02:58;31.10;;;14.57;;
58354;SDS011;44160;49.080;19.302;2023-03-01T04:05:24;30.48;;;13.93;;
58354;SDS011;44160;49.080;19.302;2023-03-01T04:07:51;27.40;;;13.55;;
58354;SDS011;44160;49.080;19.302;2023-03-01T04:10:56;30.38;;;14.20;;
58354;SDS011;44160;49.080;19.302;2023-03-01T04:13:21;27.95;;;14.02;;
58354;SDS011;44160;49.080;19.302;2023-03-01T04:15:48;35.30;;;17.95;;
58354;SDS011;44160;49.080;19.302;2023-03-01T04:18:16;35.83;;;18.10;;
58354;SDS011;44160;49.080;19.302;2023-03-01T04:20:43;39.47;;;19.17;;
58354;SDS011;44160;49.080;19.302;2023-03-01T04:23:14;40.15;;;19.23;;
58354;SDS011;44160;49.080;19.302;2023-03-01T04:28:11;40.33;;;19.05;;
58354;SDS011;44160;49.080;19.302;2023-03-01T04:30:37;42.88;;;18.30;;
58354;SDS011;44160;49.080;19.302;2023-03-01T04:33:07;46.17;;;18.70;;
58354;SDS011;44160;49.080;19.302;2023-03-01T04:35:34;46.00;;;18.95;;
58354;SDS011;44160;49.080;19.302;2023-03-01T04:38:03;42.10;;;18.15;;
58354;SDS011;44160;49.080;19.302;2023-03-01T04:40:29;40.03;;;17.75;;
58354;SDS011;44160;49.080;19.302;2023-03-01T04:42:55;41.05;;;18.98;;
58354;SDS011;44160;49.080;19.302;2023-03-01T04:45:22;40.05;;;17.23;;
58354;SDS011;44160;49.080;19.302;2023-03-01T04:47:49;54.33;;;23.88;;
58354;SDS011;44160;49.080;19.302;2023-03-01T04:50:17;51.03;;;22.00;;
58354;SDS011;44160;49.080;19.302;2023-03-01T04:52:48;52.38;;;22.52;;
58354;SDS011;44160;49.080;19.302;2023-03-01T04:55:15;60.28;;;22.38;;
58354;SDS011;44160;49.080;19.302;2023-03-01T04:57:41;57.33;;;23.70;;
58354;SDS011;44160;49.080;19.302;2023-03-01T05:00:09;50.75;;;22.13;;
58354;SDS011;44160;49.080;19.302;2023-03-01T05:05:19;39.55;;;18.58;;
58354;SDS011;44160;49.080;19.302;2023-03-01T05:07:45;36.30;;;18.58;;
58354;SDS011;44160;49.080;19.302;2023-03-01T05:10:11;49.45;;;19.67;;
58354;SDS011;44160;49.080;19.302;2023-03-01T05:12:37;35.90;;;16.20;;
58354;SDS011;44160;49.080;19.302;2023-03-01T05:15:04;39.28;;;18.55;;
58354;SDS011;44160;49.080;19.302;2023-03-01T05:17:32;46.05;;;25.15;;
58354;SDS011;44160;49.080;19.302;2023-03-01T05:19:59;48.13;;;23.48;;
58354;SDS011;44160;49.080;19.302;2023-03-01T05:22:27;41.75;;;22.55;;
58354;SDS011;44160;49.080;19.302;2023-03-01T05:24:53;52.20;;;21.75;;
58354;SDS011;44160;49.080;19.302;2023-03-01T05:27:20;46.55;;;21.42;;
58354;SDS011;44160;49.080;19.302;2023-03-01T05:29:49;45.88;;;22.02;;
58354;SDS011;44160;49.080;19.302;2023-03-01T05:32:15;44.10;;;20.83;;
58354;SDS011;44160;49.080;19.302;2023-03-01T05:34:41;50.15;;;22.35;;
58354;SDS011;44160;49.080;19.302;2023-03-01T05:37:07;45.00;;;21.00;;
58354;SDS011;44160;49.080;19.302;2023-03-01T05:39:34;38.92;;;20.55;;
58354;SDS011;44160;49.080;19.302;2023-03-01T05:42:00;39.65;;;20.35;;
58354;SDS011;44160;49.080;19.302;2023-03-01T05:44:29;45.13;;;20.48;;
58354;SDS011;44160;49.080;19.302;2023-03-01T05:49:24;40.45;;;21.02;;
58354;SDS011;44160;49.080;19.302;2023-03-01T05:51:51;40.75;;;19.73;;
58354;SDS011;44160;49.080;19.302;2023-03-01T05:54:21;42.67;;;18.92;;
58354;SDS011;44160;49.080;19.302;2023-03-01T05:56:47;44.45;;;19.42;;
58354;SDS011;44160;49.080;19.302;2023-03-01T05:59:14;38.30;;;20.35;;
58354;SDS011;44160;49.080;19.302;2023-03-01T06:01:44;39.75;;;19.38;;
58354;SDS011;44160;49.080;19.302;2023-03-01T06:04:14;35.53;;;19.10;;
58354;SDS011;44160;49.080;19.302;2023-03-01T06:06:40;40.30;;;18.40;;
58354;SDS011;44160;49.080;19.302;2023-03-01T06:09:06;34.92;;;17.75;;
58354;SDS011;44160;49.080;19.302;2023-03-01T06:11:40;40.67;;;17.65;;
58354;SDS011;44160;49.080;19.302;2023-03-01T06:14:07;36.58;;;18.80;;
58354;SDS011;44160;49.080;19.302;2023-03-01T06:16:35;36.03;;;17.88;;
58354;SDS011;44160;49.080;19.302;2023-03-01T06:19:02;32.78;;;16.45;;
58354;SDS011;44160;49.080;19.302;2023-03-01T06:21:28;34.90;;;16.65;;
58354;SDS011;44160;49.080;19.302;2023-03-01T06:23:54;31.73;;;16.35;;
58354;SDS011;44160;49.080;19.302;2023-03-01T06:26:20;34.10;;;16.92;;
58354;SDS011;44160;49.080;19.302;2023-03-01T06:28:49;28.25;;;15.02;;
58354;SDS011;44160;49.080;19.302;2023-03-01T06:31:15;28.85;;;15.82;;
58354;SDS011;44160;49.080;19.302;2023-03-01T06:33:42;28.02;;;16.30;;
58354;SDS011;44160;49.080;19.302;2023-03-01T06:36:09;34.25;;;16.17;;
58354;SDS011;44160;49.080;19.302;2023-03-01T06:38:36;31.10;;;16.63;;
58354;SDS011;44160;49.080;19.302;2023-03-01T06:41:05;32.63;;;16.75;;
58354;SDS011;44160;49.080;19.302;2023-03-01T06:43:31;30.08;;;14.73;;
58354;SDS011;44160;49.080;19.302;2023-03-01T06:46:03;28.55;;;15.63;;
58354;SDS011;44160;49.080;19.302;2023-03-01T06:48:30;31.05;;;16.77;;
58354;SDS011;44160;49.080;19.302;2023-03-01T06:50:58;28.50;;;16.25;;
58354;SDS011;44160;49.080;19.302;2023-03-01T06:53:24;32.05;;;15.45;;
58354;SDS011;44160;49.080;19.302;2023-03-01T06:55:57;25.48;;;14.00;;
58354;SDS011;44160;49.080;19.302;2023-03-01T06:58:25;27.15;;;15.45;;
58354;SDS011;44160;49.080;19.302;2023-03-01T07:00:51;27.65;;;16.65;;
58354;SDS011;44160;49.080;19.302;2023-03-01T07:03:17;32.60;;;17.50;;
58354;SDS011;44160;49.080;19.302;2023-03-01T07:05:43;34.70;;;18.52;;
58354;SDS011;44160;49.080;19.302;2023-03-01T07:08:10;68.88;;;42.67;;
58354;SDS011;44160;49.080;19.302;2023-03-01T07:10:42;52.95;;;32.10;;
58354;SDS011;44160;49.080;19.302;2023-03-01T07:13:09;42.85;;;23.30;;
58354;SDS011;44160;49.080;19.302;2023-03-01T07:15:35;69.57;;;35.45;;
58354;SDS011;44160;49.080;19.302;2023-03-01T07:18:01;50.85;;;28.05;;
58354;SDS011;44160;49.080;19.302;2023-03-01T07:20:30;60.67;;;34.60;;
58354;SDS011;44160;49.080;19.302;2023-03-01T07:22:56;35.33;;;22.60;;
58354;SDS011;44160;49.080;19.302;2023-03-01T07:25:25;27.92;;;16.20;;
58354;SDS011;44160;49.080;19.302;2023-03-01T07:27:51;42.97;;;20.83;;
58354;SDS011;44160;49.080;19.302;2023-03-01T07:30:18;27.15;;;15.95;;
58354;SDS011;44160;49.080;19.302;2023-03-01T07:32:44;26.63;;;15.25;;
58354;SDS011;44160;49.080;19.302;2023-03-01T07:35:29;23.60;;;14.40;;
58354;SDS011;44160;49.080;19.302;2023-03-01T07:38:28;22.27;;;13.10;;
58354;SDS011;44160;49.080;19.302;2023-03-01T07:40:58;30.52;;;18.13;;
58354;SDS011;44160;49.080;19.302;2023-03-01T07:43:25;24.55;;;16.02;;
58354;SDS011;44160;49.080;19.302;2023-03-01T07:45:57;30.58;;;16.42;;
58354;SDS011;44160;49.080;19.302;2023-03-01T07:48:23;27.45;;;15.68;;
58354;SDS011;44160;49.080;19.302;2023-03-01T07:50:50;36.70;;;22.15;;
58354;SDS011;44160;49.080;19.302;2023-03-01T07:53:16;28.27;;;16.48;;
58354;SDS011;44160;49.080;19.302;2023-03-01T07:55:43;27.58;;;15.77;;
58354;SDS011;44160;49.080;19.302;2023-03-01T07:58:16;21.63;;;14.70;;
58354;SDS011;44160;49.080;19.302;2023-03-01T08:00:43;30.30;;;16.75;;
58354;SDS011;44160;49.080;19.302;2023-03-01T08:03:13;28.02;;;17.00;;
58354;SDS011;44160;49.080;19.302;2023-03-01T08:05:42;26.35;;;16.42;;
58354;SDS011;44160;49.080;19.302;2023-03-01T08:08:11;26.38;;;16.55;;
58354;SDS011;44160;49.080;19.302;2023-03-01T08:10:37;32.20;;;18.70;;
58354;SDS011;44160;49.080;19.302;2023-03-01T08:13:12;30.20;;;18.23;;
58354;SDS011;44160;49.080;19.302;2023-03-01T08:15:49;37.75;;;18.40;;
58354;SDS011;44160;49.080;19.302;2023-03-01T08:18:18;27.92;;;15.52;;
58354;SDS011;44160;49.080;19.302;2023-03-01T08:20:51;34.20;;;16.25;;
58354;SDS011;44160;49.080;19.302;2023-03-01T08:23:22;26.52;;;14.82;;
58354;SDS011;44160;49.080;19.302;2023-03-01T08:26:05;27.75;;;15.23;;
58354;SDS011;44160;49.080;19.302;2023-03-01T08:28:42;25.50;;;15.95;;
58354;SDS011;44160;49.080;19.302;2023-03-01T08:31:19;25.92;;;14.98;;
58354;SDS011;44160;49.080;19.302;2023-03-01T08:33:46;23.85;;;14.23;;
58354;SDS011;44160;49.080;19.302;2023-03-01T08:36:20;23.67;;;13.75;;
58354;SDS011;44160;49.080;19.302;2023-03-01T08:38:46;25.10;;;13.88;;
58354;SDS011;44160;49.080;19.302;2023-03-01T08:41:12;20.95;;;13.55;;
58354;SDS011;44160;49.080;19.302;2023-03-01T08:43:39;29.98;;;15.52;;
58354;SDS011;44160;49.080;19.302;2023-03-01T08:46:24;25.13;;;15.95;;
58354;SDS011;44160;49.080;19.302;2023-03-01T08:48:50;23.73;;;15.70;;
58354;SDS011;44160;49.080;19.302;2023-03-01T08:51:18;21.60;;;14.43;;
58354;SDS011;44160;49.080;19.302;2023-03-01T08:53:45;21.58;;;13.75;;
58354;SDS011;44160;49.080;19.302;2023-03-01T08:56:12;19.95;;;13.73;;
58354;SDS011;44160;49.080;19.302;2023-03-01T08:58:38;22.80;;;13.95;;
58354;SDS011;44160;49.080;19.302;2023-03-01T09:01:10;20.10;;;14.05;;
58354;SDS011;44160;49.080;19.302;2023-03-01T09:03:38;19.87;;;13.40;;
58354;SDS011;44160;49.080;19.302;2023-03-01T09:06:05;20.48;;;12.88;;
58354;SDS011;44160;49.080;19.302;2023-03-01T09:08:36;22.58;;;13.02;;
58354;SDS011;44160;49.080;19.302;2023-03-01T09:11:07;24.17;;;14.05;;
58354;SDS011;44160;49.080;19.302;2023-03-01T09:13:33;20.10;;;13.48;;
58354;SDS011;44160;49.080;19.302;2023-03-01T09:16:03;20.17;;;13.25;;
58354;SDS011;44160;49.080;19.302;2023-03-01T09:18:30;19.27;;;12.88;;
58354;SDS011;44160;49.080;19.302;2023-03-01T09:23:39;23.73;;;15.48;;
58354;SDS011;44160;49.080;19.302;2023-03-01T09:26:10;28.20;;;15.23;;
58354;SDS011;44160;49.080;19.302;2023-03-01T09:28:37;24.75;;;14.57;;
58354;SDS011;44160;49.080;19.302;2023-03-01T09:31:05;22.13;;;14.15;;
58354;SDS011;44160;49.080;19.302;2023-03-01T09:33:34;22.38;;;13.90;;
58354;SDS011;44160;49.080;19.302;2023-03-01T09:36:03;21.45;;;15.00;;
58354;SDS011;44160;49.080;19.302;2023-03-01T09:38:34;22.55;;;13.57;;
58354;SDS011;44160;49.080;19.302;2023-03-01T09:41:01;19.38;;;14.32;;
58354;SDS011;44160;49.080;19.302;2023-03-01T09:46:00;19.77;;;12.57;;
58354;SDS011;44160;49.080;19.302;2023-03-01T09:48:42;22.52;;;14.52;;
58354;SDS011;44160;49.080;19.302;2023-03-01T09:51:26;20.50;;;14.02;;
58354;SDS011;44160;49.080;19.302;2023-03-01T09:53:54;20.13;;;13.07;;
58354;SDS011;44160;49.080;19.302;2023-03-01T09:56:32;20.85;;;11.80;;
58354;SDS011;44160;49.080;19.302;2023-03-01T10:01:44;18.88;;;14.23;;
58354;SDS011;44160;49.080;19.302;2023-03-01T10:07:05;13.45;;;10.18;;
58354;SDS011;44160;49.080;19.302;2023-03-01T10:09:42;19.17;;;13.00;;
58354;SDS011;44160;49.080;19.302;2023-03-01T10:12:20;15.63;;;10.48;;
58354;SDS011;44160;49.080;19.302;2023-03-01T10:14:59;14.35;;;10.35;;
58354;SDS011;44160;49.080;19.302;2023-03-01T10:17:44;14.45;;;9.55;;
58354;SDS011;44160;49.080;19.302;2023-03-01T10:22:45;14.95;;;10.25;;
58354;SDS011;44160;49.080;19.302;2023-03-01T10:25:17;16.33;;;9.77;;
58354;SDS011;44160;49.080;19.302;2023-03-01T10:28:05;25.65;;;13.25;;
58354;SDS011;44160;49.080;19.302;2023-03-01T10:30:36;17.73;;;11.40;;
58354;SDS011;44160;49.080;19.302;2023-03-01T10:33:26;15.07;;;10.98;;
58354;SDS011;44160;49.080;19.302;2023-03-01T10:35:59;15.23;;;10.82;;
58354;SDS011;44160;49.080;19.302;2023-03-01T10:38:30;14.00;;;10.77;;
58354;SDS011;44160;49.080;19.302;2023-03-01T10:41:00;18.90;;;11.50;;
58354;SDS011;44160;49.080;19.302;2023-03-01T10:43:49;21.17;;;11.60;;
58354;SDS011;44160;49.080;19.302;2023-03-01T10:46:24;20.52;;;10.80;;
58354;SDS011;44160;49.080;19.302;2023-03-01T10:51:46;17.40;;;12.00;;
58354;SDS011;44160;49.080;19.302;2023-03-01T10:54:17;15.25;;;10.90;;
58354;SDS011;44160;49.080;19.302;2023-03-01T10:56:53;15.82;;;10.27;;
58354;SDS011;44160;49.080;19.302;2023-03-01T10:59:25;20.33;;;12.68;;
58354;SDS011;44160;49.080;19.302;2023-03-01T11:04:37;15.82;;;9.23;;
58354;SDS011;44160;49.080;19.302;2023-03-01T11:07:07;16.00;;;10.90;;
58354;SDS011;44160;49.080;19.302;2023-03-01T11:09:33;16.33;;;10.90;;
58354;SDS011;44160;49.080;19.302;2023-03-01T11:12:12;16.73;;;10.23;;
58354;SDS011;44160;49.080;19.302;2023-03-01T11:14:49;16.33;;;11.00;;
58354;SDS011;44160;49.080;19.302;2023-03-01T11:17:28;14.65;;;10.52;;
58354;SDS011;44160;49.080;19.302;2023-03-01T11:20:15;17.10;;;10.30;;
58354;SDS011;44160;49.080;19.302;2023-03-01T11:22:53;17.25;;;10.35;;
58354;SDS011;44160;49.080;19.302;2023-03-01T11:25:23;16.10;;;10.82;;
58354;SDS011;44160;49.080;19.302;2023-03-01T11:27:49;14.68;;;9.15;;
58354;SDS011;44160;49.080;19.302;2023-03-01T11:35:24;17.48;;;10.35;;
58354;SDS011;44160;49.080;19.302;2023-03-01T11:45:37;16.90;;;10.90;;
58354;SDS011;44160;49.080;19.302;2023-03-01T11:48:29;21.63;;;11.35;;
58354;SDS011;44160;49.080;19.302;2023-03-01T11:50:52;18.75;;;11.15;;
58354;SDS011;44160;49.080;19.302;2023-03-01T12:01:17;13.23;;;8.10;;
58354;SDS011;44160;49.080;19.302;2023-03-01T12:09:41;20.52;;;9.95;;
58354;SDS011;44160;49.080;19.302;2023-03-01T12:25:11;16.80;;;9.90;;
58354;SDS011;44160;49.080;19.302;2023-03-01T12:32:58;16.77;;;9.27;;
58354;SDS011;44160;49.080;19.302;2023-03-01T12:46:13;15.20;;;9.35;;
58354;SDS011;44160;49.080;19.302;2023-03-01T12:51:30;20.45;;;11.15;;
58354;SDS011;44160;49.080;19.302;2023-03-01T12:53:58;17.27;;;9.10;;
58354;SDS011;44160;49.080;19.302;2023-03-01T12:56:27;16.58;;;9.20;;
58354;SDS011;44160;49.080;19.302;2023-03-01T12:58:59;17.02;;;10.20;;
58354;SDS011;44160;49.080;19.302;2023-03-01T13:01:40;20.63;;;10.85;;
58354;SDS011;44160;49.080;19.302;2023-03-01T13:20:55;19.33;;;10.18;;
58354;SDS011;44160;49.080;19.302;2023-03-01T13:31:02;17.10;;;9.30;;
58354;SDS011;44160;49.080;19.302;2023-03-01T13:36:01;17.88;;;9.43;;
58354;SDS011;44160;49.080;19.302;2023-03-01T13:38:48;24.08;;;9.65;;
58354;SDS011;44160;49.080;19.302;2023-03-01T13:44:25;16.10;;;9.05;;
58354;SDS011;44160;49.080;19.302;2023-03-01T13:46:52;23.45;;;12.15;;
58354;SDS011;44160;49.080;19.302;2023-03-01T13:49:27;18.83;;;10.00;;
58354;SDS011;44160;49.080;19.302;2023-03-01T13:51:57;14.43;;;8.02;;
58354;SDS011;44160;49.080;19.302;2023-03-01T13:54:28;13.35;;;7.28;;
58354;SDS011;44160;49.080;19.302;2023-03-01T13:56:55;13.65;;;7.07;;
58354;SDS011;44160;49.080;19.302;2023-03-01T13:59:27;13.50;;;7.35;;
58354;SDS011;44160;49.080;19.302;2023-03-01T14:02:00;14.35;;;9.15;;
58354;SDS011;44160;49.080;19.302;2023-03-01T14:04:31;10.35;;;6.22;;
58354;SDS011;44160;49.080;19.302;2023-03-01T14:07:20;28.80;;;14.82;;
58354;SDS011;44160;49.080;19.302;2023-03-01T14:09:56;18.83;;;10.35;;
58354;SDS011;44160;49.080;19.302;2023-03-01T14:15:04;8.27;;;4.93;;
58354;SDS011;44160;49.080;19.302;2023-03-01T14:20:28;11.20;;;6.30;;
58354;SDS011;44160;49.080;19.302;2023-03-01T14:22:57;8.35;;;5.38;;
58354;SDS011;44160;49.080;19.302;2023-03-01T14:25:25;7.68;;;5.28;;
58354;SDS011;44160;49.080;19.302;2023-03-01T14:30:30;14.85;;;8.30;;
58354;SDS011;44160;49.080;19.302;2023-03-01T14:32:58;14.48;;;8.57;;
58354;SDS011;44160;49.080;19.302;2023-03-01T14:35:32;15.93;;;9.52;;
58354;SDS011;44160;49.080;19.302;2023-03-01T14:37:59;23.83;;;10.07;;
58354;SDS011;44160;49.080;19.302;2023-03-01T14:42:55;20.63;;;10.07;;
58354;SDS011;44160;49.080;19.302;2023-03-01T14:45:24;15.20;;;9.43;;
58354;SDS011;44160;49.080;19.302;2023-03-01T14:47:58;18.73;;;8.85;;
58354;SDS011;44160;49.080;19.302;2023-03-01T14:50:32;25.02;;;10.50;;
58354;SDS011;44160;49.080;19.302;2023-03-01T14:53:00;17.58;;;9.68;;
58354;SDS011;44160;49.080;19.302;2023-03-01T14:55:37;14.68;;;8.88;;
58354;SDS011;44160;49.080;19.302;2023-03-01T14:58:15;19.58;;;10.93;;
58354;SDS011;44160;49.080;19.302;2023-03-01T15:06:05;12.43;;;8.40;;
58354;SDS011;44160;49.080;19.302;2023-03-01T15:08:45;10.63;;;6.68;;
58354;SDS011;44160;49.080;19.302;2023-03-01T15:13:44;10.00;;;4.85;;
58354;SDS011;44160;49.080;19.302;2023-03-01T15:16:17;9.75;;;5.30;;
58354;SDS011;44160;49.080;19.302;2023-03-01T15:18:52;7.35;;;5.55;;
58354;SDS011;44160;49.080;19.302;2023-03-01T15:23:58;10.73;;;6.10;;
58354;SDS011;44160;49.080;19.302;2023-03-01T15:26:37;10.82;;;7.05;;
58354;SDS011;44160;49.080;19.302;2023-03-01T15:29:22;17.00;;;7.78;;
58354;SDS011;44160;49.080;19.302;2023-03-01T15:32:06;21.77;;;11.50;;
58354;SDS011;44160;49.080;19.302;2023-03-01T15:34:36;18.17;;;11.25;;
58354;SDS011;44160;49.080;19.302;2023-03-01T15:37:03;25.55;;;13.02;;
58354;SDS011;44160;49.080;19.302;2023-03-01T15:39:43;26.02;;;11.65;;
58354;SDS011;44160;49.080;19.302;2023-03-01T15:47:55;29.33;;;13.60;;
58354;SDS011;44160;49.080;19.302;2023-03-01T15:50:29;23.45;;;12.35;;
58354;SDS011;44160;49.080;19.302;2023-03-01T15:52:58;21.83;;;11.13;;
58354;SDS011;44160;49.080;19.302;2023-03-01T15:55:31;29.45;;;13.23;;
58354;SDS011;44160;49.080;19.302;2023-03-01T15:58:13;25.67;;;11.70;;
58354;SDS011;44160;49.080;19.302;2023-03-01T16:00:41;21.13;;;10.82;;
58354;SDS011;44160;49.080;19.302;2023-03-01T16:06:11;20.38;;;12.00;;
58354;SDS011;44160;49.080;19.302;2023-03-01T16:08:38;20.52;;;10.73;;
58354;SDS011;44160;49.080;19.302;2023-03-01T16:11:13;19.65;;;10.75;;
58354;SDS011;44160;49.080;19.302;2023-03-01T16:13:40;20.50;;;9.45;;
58354;SDS011;44160;49.080;19.302;2023-03-01T16:16:07;18.98;;;9.27;;
58354;SDS011;44160;49.080;19.302;2023-03-01T16:21:23;16.35;;;10.18;;
58354;SDS011;44160;49.080;19.302;2023-03-01T16:23:57;19.55;;;11.13;;
58354;SDS011;44160;49.080;19.302;2023-03-01T16:26:23;14.35;;;8.52;;
58354;SDS011;44160;49.080;19.302;2023-03-01T16:28:50;28.45;;;14.23;;
58354;SDS011;44160;49.080;19.302;2023-03-01T16:31:17;35.67;;;17.45;;
58354;SDS011;44160;49.080;19.302;2023-03-01T16:33:43;42.90;;;16.52;;
58354;SDS011;44160;49.080;19.302;2023-03-01T16:36:19;22.40;;;12.93;;
58354;SDS011;44160;49.080;19.302;2023-03-01T16:39:10;31.33;;;13.80;;
58354;SDS011;44160;49.080;19.302;2023-03-01T16:41:36;25.70;;;11.38;;
58354;SDS011;44160;49.080;19.302;2023-03-01T16:44:02;19.13;;;9.82;;
58354;SDS011;44160;49.080;19.302;2023-03-01T16:46:28;22.45;;;11.90;;
58354;SDS011;44160;49.080;19.302;2023-03-01T16:49:02;27.40;;;15.70;;
58354;SDS011;44160;49.080;19.302;2023-03-01T16:51:28;24.67;;;13.57;;
58354;SDS011;44160;49.080;19.302;2023-03-01T16:53:55;20.98;;;13.20;;
58354;SDS011;44160;49.080;19.302;2023-03-01T16:56:22;29.08;;;19.00;;
58354;SDS011;44160;49.080;19.302;2023-03-01T16:58:48;27.48;;;12.35;;
58354;SDS011;44160;49.080;19.302;2023-03-01T17:04:18;54.33;;;20.20;;
58354;SDS011;44160;49.080;19.302;2023-03-01T17:10:02;54.85;;;20.42;;